Terminal Aerodrome Forecast
Issued by NWS

Home | Current Version | Previous Version | Text Only | Print | Product List | Glossary On
Versions: 1 2 3 4 5 6 7 8 9 10 11 12 13 14 15 16
000
FTUS45 KSLC 211145
TAFOGD
TAF
KOGD 211145Z 2112/2212 17017G25KT P6SM SCT040 BKN070
     FM211700 20019G28KT P6SM SCT060 BKN110
     FM220100 34013KT 4SM -RA SCT010 BKN025
     FM220600 29007KT P6SM -RA OVC050=

USA.gov is the U.S. government's official web portal to all federal, state and local government web resources and services.